createdAt,value
2018-02-07T00:00:37.410Z,57.55
2018-02-07T00:03:04.931Z,60.67
2018-02-07T00:05:32.470Z,60.53
2018-02-07T00:07:59.984Z,60.08
2018-02-07T00:10:28.254Z,57.33
2018-02-07T00:12:56.546Z,61.42
2018-02-07T00:15:24.055Z,68.93
2018-02-07T00:17:51.599Z,55.40
2018-02-07T00:20:19.131Z,62.03
2018-02-07T00:22:46.635Z,66.18
2018-02-07T00:25:14.159Z,59.38
2018-02-07T00:27:41.706Z,54.17
2018-02-07T00:30:09.228Z,60.63
2018-02-07T00:32:36.774Z,59.85
2018-02-07T00:35:04.283Z,61.55
2018-02-07T00:37:31.816Z,56.22
2018-02-07T00:40:00.108Z,58.30
2018-02-07T00:42:27.619Z,59.20
2018-02-07T00:44:55.166Z,60.83
2018-02-07T00:47:22.681Z,58.65
2018-02-07T00:49:50.187Z,62.47
2018-02-07T00:52:17.737Z,55.42
2018-02-07T00:54:45.262Z,60.90
2018-02-07T00:57:12.805Z,59.70
2018-02-07T00:59:41.073Z,58.47
2018-02-07T01:02:09.386Z,55.22
2018-02-07T01:04:36.916Z,56.70
2018-02-07T01:07:04.434Z,62.00
2018-02-07T01:09:31.965Z,60.65
2018-02-07T01:11:59.465Z,63.75
2018-02-07T01:14:26.991Z,57.95
2018-02-07T01:16:54.500Z,55.80
2018-02-07T01:19:22.816Z,60.28
2018-02-07T01:21:50.329Z,59.65
2018-02-07T01:24:17.867Z,55.45
2018-02-07T01:26:45.398Z,64.03
2018-02-07T01:29:13.680Z,57.42
2018-02-07T01:31:41.196Z,54.58
2018-02-07T01:34:09.509Z,63.13
2018-02-07T01:36:37.020Z,55.85
2018-02-07T01:39:04.573Z,57.58
2018-02-07T01:41:32.116Z,57.60
2018-02-07T01:43:59.658Z,62.58
2018-02-07T01:46:27.163Z,55.38
2018-02-07T01:48:55.465Z,62.33
2018-02-07T01:51:22.997Z,58.90
2018-02-07T01:53:51.293Z,57.38
2018-02-07T01:56:18.800Z,58.30
2018-02-07T01:58:46.338Z,59.08
2018-02-07T02:01:14.610Z,59.25
2018-02-07T02:03:42.144Z,59.58
2018-02-07T02:06:09.650Z,58.13
2018-02-07T02:08:37.158Z,59.72
2018-02-07T02:11:04.691Z,55.35
2018-02-07T02:13:32.198Z,62.97
2018-02-07T02:15:59.717Z,57.17
2018-02-07T02:18:27.992Z,59.80
2018-02-07T02:20:56.279Z,58.75
2018-02-07T02:23:24.554Z,58.13
2018-02-07T02:25:52.107Z,51.92
2018-02-07T02:28:20.407Z,51.45
2018-02-07T02:30:47.949Z,57.03
2018-02-07T02:33:16.244Z,50.08
2018-02-07T02:35:55.632Z,53.72
2018-02-07T02:38:23.173Z,51.58
2018-02-07T02:40:50.703Z,54.80
2018-02-07T02:43:18.229Z,51.88
2018-02-07T02:45:46.542Z,51.78
2018-02-07T02:48:14.051Z,55.50
2018-02-07T02:50:41.552Z,55.30
2018-02-07T02:53:09.082Z,50.72
2018-02-07T02:55:37.380Z,57.22
2018-02-07T02:58:04.914Z,57.85
2018-02-07T03:00:33.228Z,51.37
2018-02-07T03:03:00.752Z,57.22
2018-02-07T03:05:29.041Z,57.83
2018-02-07T03:07:56.555Z,59.42
2018-02-07T03:10:24.080Z,53.45
2018-02-07T03:12:51.605Z,49.30
2018-02-07T03:15:19.873Z,55.00
2018-02-07T03:17:48.197Z,53.33
2018-02-07T03:20:16.474Z,52.97
2018-02-07T03:22:43.988Z,54.78
2018-02-07T03:25:12.299Z,56.28
2018-02-07T03:27:39.805Z,54.13
2018-02-07T03:30:07.356Z,56.35
2018-02-07T03:32:34.911Z,54.25
2018-02-07T03:35:02.429Z,55.47
2018-02-07T03:37:29.943Z,49.38
2018-02-07T03:39:57.449Z,52.33
2018-02-07T03:42:25.011Z,57.22
2018-02-07T03:44:52.552Z,51.53
2018-02-07T03:47:20.815Z,45.75
2018-02-07T03:49:49.116Z,57.10
2018-02-07T03:52:16.620Z,54.22
2018-02-07T03:54:44.133Z,50.75
2018-02-07T03:57:11.679Z,50.83
2018-02-07T03:59:39.186Z,51.25
2018-02-07T04:02:06.689Z,48.28
2018-02-07T04:04:34.217Z,51.55
2018-02-07T04:07:01.716Z,45.78
2018-02-07T04:09:29.453Z,53.42
2018-02-07T04:11:56.991Z,49.15
2018-02-07T04:14:24.504Z,50.28
2018-02-07T04:16:52.013Z,50.35
2018-02-07T04:19:19.532Z,48.78
2018-02-07T04:21:47.061Z,47.15
2018-02-07T04:24:15.338Z,44.17
2018-02-07T04:26:43.634Z,59.47
2018-02-07T04:29:11.156Z,47.88
2018-02-07T04:31:39.452Z,48.83
2018-02-07T04:34:07.751Z,53.83
2018-02-07T04:36:35.260Z,51.83
2018-02-07T04:39:02.808Z,56.78
2018-02-07T04:41:30.339Z,54.33
2018-02-07T04:43:57.859Z,52.92
2018-02-07T04:46:26.149Z,51.28
2018-02-07T04:48:53.666Z,45.50
2018-02-07T04:51:21.188Z,47.65
2018-02-07T04:53:48.721Z,56.70
2018-02-07T04:56:16.229Z,53.38
2018-02-07T04:58:43.766Z,50.85
2018-02-07T05:01:11.300Z,51.15
2018-02-07T05:03:38.806Z,50.97
2018-02-07T05:06:06.340Z,61.70
2018-02-07T05:08:33.868Z,50.78
2018-02-07T05:11:02.175Z,53.53
2018-02-07T05:13:29.687Z,51.20
2018-02-07T05:15:57.977Z,55.80
2018-02-07T05:18:26.270Z,56.45
2018-02-07T05:20:53.782Z,48.42
2018-02-07T05:23:21.349Z,52.13
2018-02-07T05:25:48.863Z,49.42
2018-02-07T05:28:16.414Z,58.45
2018-02-07T05:30:43.959Z,58.87
2018-02-07T05:33:11.469Z,46.00
2018-02-07T05:35:39.005Z,55.47
2018-02-07T05:38:06.516Z,61.53
2018-02-07T05:40:34.797Z,51.37
2018-02-07T05:43:03.099Z,52.20
2018-02-07T05:45:30.630Z,54.40
2018-02-07T05:47:58.933Z,54.53
2018-02-07T05:50:26.448Z,54.80
2018-02-07T05:52:53.964Z,49.85
2018-02-07T05:55:21.512Z,57.53
2018-02-07T05:57:49.043Z,50.58
2018-02-07T06:00:17.334Z,61.75
2018-02-07T06:02:44.843Z,54.65
2018-02-07T06:05:12.375Z,57.28
2018-02-07T06:07:39.927Z,55.67
2018-02-07T06:10:07.425Z,59.60
2018-02-07T06:12:34.958Z,61.25
2018-02-07T06:15:02.473Z,62.42
2018-02-07T06:17:30.791Z,60.75
2018-02-07T06:19:58.309Z,62.38
2018-02-07T06:22:25.861Z,56.60
2018-02-07T06:24:54.167Z,62.92
2018-02-07T06:27:21.717Z,49.10
2018-02-07T06:29:49.251Z,57.42
2018-02-07T06:32:17.519Z,60.28
2018-02-07T06:34:45.628Z,61.13
2018-02-07T06:37:13.995Z,61.65
2018-02-07T06:39:41.518Z,55.17
2018-02-07T06:42:09.052Z,64.97
2018-02-07T06:44:36.570Z,61.72
2018-02-07T06:47:04.094Z,59.42
2018-02-07T06:49:31.645Z,65.75
2018-02-07T06:51:59.211Z,59.83
2018-02-07T06:54:26.788Z,66.65
2018-02-07T06:56:55.062Z,56.53
2018-02-07T06:59:23.399Z,59.88
2018-02-07T07:01:50.936Z,58.47
2018-02-07T07:04:18.472Z,59.53
2018-02-07T07:06:46.787Z,56.28
2018-02-07T07:09:14.353Z,56.08
2018-02-07T07:11:41.887Z,57.47
2018-02-07T07:14:09.427Z,61.30
2018-02-07T07:16:37.736Z,65.53
2018-02-07T07:19:05.255Z,53.22
2018-02-07T07:21:33.540Z,63.67
2018-02-07T07:24:01.106Z,56.13
2018-02-07T07:26:28.633Z,59.85
2018-02-07T07:28:56.183Z,64.85
2018-02-07T07:31:23.713Z,58.80
2018-02-07T07:33:51.267Z,58.15
2018-02-07T07:36:18.818Z,59.03
2018-02-07T07:38:46.419Z,59.95
2018-02-07T07:41:13.916Z,62.67
2018-02-07T07:43:41.418Z,56.85
2018-02-07T07:46:08.962Z,57.00
2018-02-07T07:48:36.465Z,60.67
2018-02-07T07:51:03.999Z,56.28
2018-02-07T07:53:31.523Z,62.25
2018-02-07T07:55:59.054Z,63.08
2018-02-07T07:58:27.366Z,65.05
2018-02-07T08:00:54.880Z,60.70
2018-02-07T08:03:23.185Z,59.55
2018-02-07T08:05:52.648Z,57.65
2018-02-07T08:08:20.204Z,59.70
2018-02-07T08:10:48.545Z,58.53
2018-02-07T08:13:16.080Z,62.35
2018-02-07T08:15:43.611Z,62.03
2018-02-07T08:18:11.132Z,57.42
2018-02-07T08:20:38.663Z,55.53
2018-02-07T08:23:06.190Z,61.53
2018-02-07T08:25:34.479Z,58.35
2018-02-07T08:28:02.746Z,67.93
2018-02-07T08:30:31.047Z,54.85
2018-02-07T08:32:58.572Z,59.05
2018-02-07T08:35:26.119Z,52.80
2018-02-07T08:37:53.636Z,61.80
2018-02-07T08:40:21.163Z,57.53
2018-02-07T08:42:49.451Z,59.17
2018-02-07T08:45:17.714Z,53.20
2018-02-07T08:47:46.008Z,60.00
2018-02-07T08:50:13.520Z,59.75
2018-02-07T08:52:41.033Z,58.83
2018-02-07T08:55:08.582Z,58.53
2018-02-07T08:57:36.113Z,54.72
2018-02-07T09:00:03.650Z,62.10
2018-02-07T09:02:31.184Z,59.85
2018-02-07T09:04:58.725Z,80.00
2018-02-07T09:07:26.258Z,57.78
2018-02-07T09:09:54.527Z,55.00
2018-02-07T09:12:22.827Z,57.05
2018-02-07T09:14:50.335Z,57.67
2018-02-07T09:17:17.886Z,61.33
2018-02-07T09:19:45.386Z,70.10
2018-02-07T09:22:13.717Z,60.45
2018-02-07T09:24:41.227Z,65.32
2018-02-07T09:27:09.480Z,60.22
2018-02-07T09:29:37.004Z,61.53
2018-02-07T09:32:04.540Z,62.03
2018-02-07T09:34:32.083Z,58.80
2018-02-07T09:36:59.600Z,61.15
2018-02-07T09:39:27.102Z,62.20
2018-02-07T09:41:55.404Z,60.15
2018-02-07T09:44:22.916Z,59.47
2018-02-07T09:46:51.211Z,64.87
2018-02-07T09:49:19.807Z,58.38
2018-02-07T09:51:47.310Z,63.20
2018-02-07T09:54:14.871Z,58.20
2018-02-07T09:56:42.438Z,59.97
2018-02-07T09:59:09.951Z,60.90
2018-02-07T10:01:37.458Z,66.05
2018-02-07T10:04:04.982Z,57.92
2018-02-07T10:06:32.513Z,64.47
2018-02-07T10:09:00.024Z,62.70
2018-02-07T10:11:27.567Z,57.72
2018-02-07T10:13:55.075Z,57.50
2018-02-07T10:16:23.389Z,60.40
2018-02-07T10:18:50.890Z,60.95
2018-02-07T10:21:18.411Z,64.90
2018-02-07T10:23:45.916Z,63.17
2018-02-07T10:26:14.279Z,60.70
2018-02-07T10:28:41.893Z,62.88
2018-02-07T10:31:09.462Z,62.90
2018-02-07T10:33:36.959Z,68.45
2018-02-07T10:36:04.482Z,61.00
2018-02-07T10:38:31.973Z,60.78
2018-02-07T10:40:59.508Z,65.87
2018-02-07T10:43:27.012Z,58.90
2018-02-07T10:45:55.329Z,62.67
2018-02-07T10:48:22.831Z,59.28
2018-02-07T10:50:50.350Z,64.35
2018-02-07T10:53:17.888Z,63.28
2018-02-07T10:55:45.409Z,59.70
2018-02-07T10:58:13.703Z,63.78
2018-02-07T11:00:42.010Z,60.78
2018-02-07T11:03:10.309Z,60.30
2018-02-07T11:05:37.850Z,62.08
2018-02-07T11:08:05.388Z,65.90
2018-02-07T11:10:32.937Z,62.90
2018-02-07T11:13:01.239Z,77.50
2018-02-07T11:15:28.763Z,62.90
2018-02-07T11:17:57.043Z,66.35
2018-02-07T11:20:24.543Z,63.78
2018-02-07T11:22:52.090Z,65.60
2018-02-07T11:25:19.651Z,64.07
2018-02-07T11:27:47.185Z,61.25
2018-02-07T11:30:14.734Z,63.87
2018-02-07T11:32:43.027Z,64.30
2018-02-07T11:35:10.567Z,65.25
2018-02-07T11:37:38.872Z,70.32
2018-02-07T11:40:06.392Z,63.30
2018-02-07T11:42:34.688Z,61.92
2018-02-07T11:45:02.981Z,63.35
2018-02-07T11:47:30.570Z,61.25
2018-02-07T11:49:58.064Z,65.68
2018-02-07T11:52:25.579Z,64.87
2018-02-07T11:54:53.092Z,63.45
2018-02-07T11:57:20.648Z,63.78
2018-02-07T11:59:48.186Z,62.58
2018-02-07T12:02:15.742Z,62.43
2018-02-07T12:04:43.279Z,61.37
2018-02-07T12:07:10.808Z,59.10
2018-02-07T12:09:38.362Z,63.27
2018-02-07T12:12:05.870Z,68.40
2018-02-07T12:14:33.372Z,62.80
2018-02-07T12:17:00.900Z,70.40
2018-02-07T12:19:28.400Z,66.13
2018-02-07T12:21:55.990Z,62.63
2018-02-07T12:24:23.495Z,63.20
2018-02-07T12:26:51.767Z,67.13
2018-02-07T12:29:20.059Z,64.33
2018-02-07T12:31:47.558Z,64.73
2018-02-07T12:34:18.039Z,67.27
2018-02-07T12:36:45.576Z,63.40
2018-02-07T12:39:13.103Z,67.63
2018-02-07T12:41:40.621Z,58.83
2018-02-07T12:44:23.887Z,65.13
2018-02-07T12:46:51.405Z,64.47
2018-02-07T12:49:18.940Z,59.80
2018-02-07T12:51:46.496Z,71.77
2018-02-07T12:54:14.007Z,63.33
2018-02-07T12:56:41.527Z,63.90
2018-02-07T12:59:09.840Z,65.57
2018-02-07T13:01:38.128Z,66.17
2018-02-07T13:04:05.659Z,73.05
2018-02-07T13:06:33.192Z,62.92
2018-02-07T13:09:01.506Z,65.25
2018-02-07T13:11:29.038Z,70.30
2018-02-07T13:13:57.358Z,65.10
2018-02-07T13:16:24.879Z,68.97
2018-02-07T13:18:53.166Z,64.10
2018-02-07T13:21:20.704Z,68.47
2018-02-07T13:23:49.027Z,77.32
2018-02-07T13:26:16.594Z,62.38
2018-02-07T13:28:44.135Z,61.22
2018-02-07T13:31:11.671Z,63.58
2018-02-07T13:33:39.955Z,66.00
2018-02-07T13:36:07.485Z,67.70
2018-02-07T13:38:34.987Z,69.05
2018-02-07T13:41:02.510Z,67.62
2018-02-07T13:43:30.817Z,63.33
2018-02-07T13:45:58.380Z,64.62
2018-02-07T13:48:25.921Z,68.60
2018-02-07T13:50:53.429Z,69.10
2018-02-07T13:53:20.960Z,65.30
2018-02-07T13:55:49.259Z,74.65
2018-02-07T13:58:16.790Z,72.82
2018-02-07T14:00:49.939Z,69.85
2018-02-07T14:03:17.496Z,69.50
2018-02-07T14:05:44.995Z,68.78
2018-02-07T14:08:12.498Z,69.97
2018-02-07T14:10:40.024Z,69.30
2018-02-07T14:13:07.522Z,70.68
2018-02-07T14:15:35.070Z,76.68
2018-02-07T14:18:02.593Z,76.00
2018-02-07T14:20:30.094Z,70.50
2018-02-07T14:22:57.663Z,66.30
2018-02-07T14:25:25.950Z,73.25
2018-02-07T14:27:54.228Z,69.62
2018-02-07T14:30:22.526Z,71.22
2018-02-07T14:32:50.083Z,63.35
2018-02-07T14:35:17.734Z,74.78
2018-02-07T14:40:44.494Z,76.07
2018-02-07T14:43:12.014Z,75.30
2018-02-07T14:45:39.547Z,69.68
2018-02-07T14:48:07.070Z,72.18
2018-02-07T14:50:35.400Z,71.80
2018-02-07T14:53:02.908Z,69.30
2018-02-07T14:55:30.426Z,69.43
2018-02-07T14:57:58.005Z,71.25
2018-02-07T15:00:26.282Z,69.03
2018-02-07T15:02:54.597Z,72.93
2018-02-07T15:05:22.104Z,68.10
2018-02-07T15:07:49.629Z,67.75
2018-02-07T15:10:17.169Z,73.45
2018-02-07T15:12:44.729Z,66.15
2018-02-07T15:15:12.306Z,66.85
2018-02-07T15:17:39.808Z,67.07
2018-02-07T15:20:08.156Z,65.50
2018-02-07T15:22:35.744Z,75.78
2018-02-07T15:27:39.167Z,81.53
2018-02-07T15:30:07.509Z,70.40
2018-02-07T15:32:35.088Z,68.60
2018-02-07T15:35:03.491Z,69.65
2018-02-07T15:37:31.801Z,71.65
2018-02-07T15:39:59.456Z,69.85
2018-02-07T15:42:26.978Z,70.43
2018-02-07T15:44:55.566Z,67.25
2018-02-07T15:47:23.883Z,68.15
2018-02-07T15:49:51.498Z,74.25
2018-02-07T15:52:19.866Z,69.55
2018-02-07T15:54:47.455Z,70.22
2018-02-07T15:57:15.743Z,67.18
2018-02-07T15:59:43.267Z,65.85
2018-02-07T16:02:10.910Z,70.95
2018-02-07T16:04:38.438Z,75.10
2018-02-07T16:07:05.987Z,66.95
2018-02-07T16:09:33.507Z,71.10
2018-02-07T16:12:01.848Z,65.10
2018-02-07T16:14:29.414Z,64.80
2018-02-07T16:16:56.958Z,70.62
2018-02-07T16:19:24.474Z,75.95
2018-02-07T16:21:52.770Z,73.20
2018-02-07T16:24:20.403Z,76.82
2018-02-07T16:26:48.934Z,74.50
2018-02-07T16:29:16.470Z,72.53
2018-02-07T16:31:44.007Z,79.78
2018-02-07T16:34:12.266Z,72.93
2018-02-07T16:36:39.844Z,73.12
2018-02-07T16:39:08.164Z,76.25
2018-02-07T16:41:35.686Z,77.65
2018-02-07T16:44:03.239Z,75.53
2018-02-07T16:46:31.543Z,70.55
2018-02-07T16:48:59.065Z,83.25
2018-02-07T16:51:26.600Z,71.62
2018-02-07T16:53:54.123Z,79.47
2018-02-07T16:56:21.643Z,78.20
2018-02-07T16:58:49.940Z,76.12
2018-02-07T17:01:18.256Z,81.28
2018-02-07T17:03:45.770Z,90.55
2018-02-07T17:06:13.340Z,81.35
2018-02-07T17:08:40.874Z,92.12
2018-02-07T17:11:08.451Z,80.87
2018-02-07T17:13:36.727Z,78.75
2018-02-07T17:16:04.277Z,77.80
2018-02-07T17:18:32.561Z,79.50
2018-02-07T17:21:00.090Z,82.37
2018-02-07T17:23:27.614Z,88.22
2018-02-07T17:25:56.031Z,77.18
2018-02-07T17:28:23.562Z,81.15
2018-02-07T17:30:51.095Z,75.57
2018-02-07T17:33:18.614Z,74.47
2018-02-07T17:35:46.160Z,73.95
2018-02-07T17:38:14.941Z,70.43
2018-02-07T17:40:42.453Z,70.18
2018-02-07T17:43:09.968Z,72.07
2018-02-07T17:45:38.369Z,76.95
2018-02-07T17:48:06.656Z,78.90
2018-02-07T17:50:34.988Z,78.90
2018-02-07T17:53:02.517Z,76.00
2018-02-07T17:55:30.097Z,80.87
2018-02-07T17:57:57.669Z,72.65
2018-02-07T18:00:25.220Z,75.90
2018-02-07T18:02:52.827Z,74.50
2018-02-07T18:05:20.581Z,73.82
2018-02-07T18:07:48.170Z,76.95
2018-02-07T18:10:31.493Z,75.37
2018-02-07T18:12:59.077Z,83.72
2018-02-07T18:15:27.657Z,86.80
2018-02-07T18:17:55.294Z,78.62
2018-02-07T18:20:22.844Z,74.70
2018-02-07T18:22:51.171Z,78.28
2018-02-07T18:25:18.777Z,83.72
2018-02-07T18:27:47.218Z,88.22
2018-02-07T18:30:16.880Z,76.22
2018-02-07T18:32:44.821Z,77.07
2018-02-07T18:35:12.421Z,86.93
2018-02-07T18:37:39.998Z,75.05
2018-02-07T18:40:07.536Z,75.65
2018-02-07T18:42:35.138Z,82.50
2018-02-07T18:45:03.714Z,79.72
2018-02-07T18:47:32.442Z,74.03
2018-02-07T18:50:00.799Z,81.37
2018-02-07T18:52:28.327Z,91.63
2018-02-07T18:54:55.880Z,85.28
2018-02-07T18:57:23.616Z,82.68
2018-02-07T18:59:51.349Z,72.57
2018-02-07T19:02:19.021Z,75.20
2018-02-07T19:04:47.414Z,68.62
2018-02-07T19:07:15.714Z,81.78
2018-02-07T19:09:43.248Z,70.87
2018-02-07T19:12:12.197Z,69.62
2018-02-07T19:14:40.250Z,76.10
2018-02-07T19:17:07.834Z,72.30
2018-02-07T19:22:15.511Z,79.87
2018-02-07T19:24:43.011Z,76.20
2018-02-07T19:27:10.780Z,79.53
2018-02-07T19:29:38.439Z,81.68
2018-02-07T19:32:05.975Z,79.40
2018-02-07T19:34:33.545Z,84.80
2018-02-07T19:37:01.104Z,73.43
2018-02-07T19:39:29.728Z,83.45
2018-02-07T19:41:57.353Z,76.97
2018-02-07T19:44:24.868Z,71.57
2018-02-07T19:46:52.430Z,73.70
2018-02-07T19:49:19.975Z,74.57
2018-02-07T19:51:48.364Z,71.20
2018-02-07T19:54:15.962Z,71.87
2018-02-07T19:56:44.284Z,76.05
2018-02-07T19:59:12.604Z,68.60
2018-02-07T20:01:40.133Z,70.45
2018-02-07T20:04:08.086Z,80.78
2018-02-07T20:06:35.671Z,77.80
2018-02-07T20:09:03.225Z,74.20
2018-02-07T20:11:30.747Z,68.57
2018-02-07T20:13:58.401Z,74.30
2018-02-07T20:16:26.902Z,78.40
2018-02-07T20:18:55.221Z,78.00
2018-02-07T20:21:22.757Z,73.03
2018-02-07T20:23:50.291Z,78.03
2018-02-07T20:26:18.644Z,80.28
2018-02-07T20:28:46.233Z,78.80
2018-02-07T20:31:14.531Z,76.78
2018-02-07T20:33:42.118Z,87.65
2018-02-07T20:36:09.648Z,87.25
2018-02-07T20:38:37.337Z,81.93
2018-02-07T20:41:04.881Z,79.70
2018-02-07T20:43:32.423Z,75.97
2018-02-07T20:46:00.706Z,86.40
2018-02-07T20:48:28.295Z,79.72
2018-02-07T20:50:55.832Z,81.90
2018-02-07T20:53:23.377Z,78.22
2018-02-07T20:55:51.677Z,79.70
2018-02-07T20:58:19.212Z,78.43
2018-02-07T21:00:47.599Z,77.43
2018-02-07T21:03:15.123Z,87.62
2018-02-07T21:05:42.685Z,82.10
2018-02-07T21:08:10.243Z,81.53
2018-02-07T21:10:37.806Z,91.37
2018-02-07T21:13:06.169Z,78.87
2018-02-07T21:15:34.651Z,86.85
2018-02-07T21:18:02.237Z,75.68
2018-02-07T21:20:30.685Z,83.30
2018-02-07T21:22:58.284Z,86.97
2018-02-07T21:25:25.881Z,80.75
2018-02-07T21:27:53.409Z,87.85
2018-02-07T21:30:21.243Z,87.15
2018-02-07T21:32:48.798Z,84.37
2018-02-07T21:35:16.299Z,86.15
2018-02-07T21:37:44.062Z,77.28
2018-02-07T21:40:11.851Z,105.97
2018-02-07T21:42:39.437Z,93.32
2018-02-07T21:45:06.961Z,100.40
2018-02-07T21:47:34.495Z,89.93
2018-02-07T21:50:02.822Z,103.85
2018-02-07T21:52:30.345Z,99.82
2018-02-07T21:54:57.863Z,96.07
2018-02-07T21:57:26.183Z,98.37
2018-02-07T21:59:53.701Z,88.03
2018-02-07T22:02:23.136Z,86.07
2018-02-07T22:04:50.655Z,98.40
2018-02-07T22:07:18.181Z,99.43
2018-02-07T22:09:45.767Z,95.22
2018-02-07T22:12:13.296Z,95.75
2018-02-07T22:14:40.837Z,97.12
2018-02-07T22:17:08.400Z,92.55
2018-02-07T22:19:35.912Z,106.65
2018-02-07T22:22:03.404Z,96.05
2018-02-07T22:24:30.946Z,114.97
2018-02-07T22:26:59.256Z,104.65
2018-02-07T22:29:26.759Z,95.65
2018-02-07T22:31:54.283Z,96.28
2018-02-07T22:34:21.934Z,100.20
2018-02-07T22:36:49.449Z,100.65
2018-02-07T22:39:16.965Z,109.95
2018-02-07T22:41:44.484Z,97.78
2018-02-07T22:44:12.748Z,107.85
2018-02-07T22:46:41.064Z,99.85
2018-02-07T22:49:08.573Z,107.35
2018-02-07T22:51:36.112Z,109.45
2018-02-07T22:54:03.626Z,97.85
2018-02-07T22:56:31.168Z,98.05
2018-02-07T22:58:59.996Z,102.07
2018-02-07T23:01:27.524Z,111.30
2018-02-07T23:03:55.824Z,105.03
2018-02-07T23:06:23.342Z,107.20
2018-02-07T23:08:51.644Z,107.37
2018-02-07T23:11:19.166Z,106.82
2018-02-07T23:13:46.722Z,102.38
2018-02-07T23:16:14.267Z,106.93
2018-02-07T23:18:41.799Z,99.78
2018-02-07T23:21:09.321Z,103.10
2018-02-07T23:23:37.593Z,99.90
2018-02-07T23:26:05.988Z,96.37
2018-02-07T23:28:33.491Z,98.97
2018-02-07T23:31:00.992Z,97.85
2018-02-07T23:33:29.278Z,95.43
2018-02-07T23:35:57.543Z,92.78
2018-02-07T23:38:25.844Z,91.25
2018-02-07T23:40:53.336Z,95.00
2018-02-07T23:43:20.848Z,104.53
2018-02-07T23:45:49.128Z,96.10
2018-02-07T23:48:16.651Z,96.50
2018-02-07T23:50:44.191Z,97.20
2018-02-07T23:53:11.713Z,94.87
2018-02-07T23:55:39.245Z,90.62
2018-02-07T23:58:07.507Z,95.38
